Nearby METAR Reports

Actuele Vliegveldwaarnemingen NL (METAR).Zie KNMI uitleg METAR hier

EHAM - Amsterdam/Schiph, Netherlands
Distance from station: ONO 18km
Updated: 18/08/2019 17:55
Few Clouds
Few Clouds
 Wind van ZW
Wind: ZW 24 km/h
Temperatuur: 20°C
Dauwpunt: 14°C
Vochtigheid: 69%
Barometer: 1006 hPa
Clouds: Few Clouds
Visibility: 10 km
Cloud details: Few Clouds 732 m
2019/08/18 15:55 EHAM 181555Z 23013KT 190V260 9999 FEW024 20/14 Q1006 NOSIG
EHKD - DE KOOY/DE KOOY
Updated: 18/08/2019 17:55
Meestal bewolkt
Meestal bewolkt
 Wind van ZW
Wind: ZW 28 km/h
Temperatuur: 19°C
Dauwpunt: 13°C
Vochtigheid: 68%
Barometer: 1005 hPa
Clouds: Meestal bewolkt
Visibility: 10 km
Cloud details: Meestal bewolkt 2835 m
2019/08/18 15:55 EHKD 181555Z AUTO 22015KT 190V250 9999 BKN093 19/13 Q1005 BLU 23015KT 9999 FEW024 SCT100
 
EHLW - LEEUWARDEN/LEEUWARDEN
Updated: 18/08/2019 17:55
Few Clouds
Few Clouds
 Wind van WZW
Wind: WZW 30 km/h
Temperatuur: 19°C
Dauwpunt: 13°C
Vochtigheid: 68%
Barometer: 1005 hPa
Clouds: Few Clouds
Visibility: 10 km
Cloud details: Few Clouds 792 m
2019/08/18 15:55 EHLW 181555Z AUTO 24016KT 210V270 9999 FEW026 19/13 Q1005 BLU
EHVK - VOLKEL/VOLKEL
Updated: 18/08/2019 18:00
Zwaar bewolkt
Zwaar bewolkt
 Wind van ZW
Wind: ZW 19 km/h
Temperatuur: 20°C
Dauwpunt: 15°C
Vochtigheid: 73%
Barometer: 1007 hPa
Clouds: Zwaar bewolkt
Visibility: 10 km
Cloud details: Gedeeltelijk bewolkt 701 m
Gedeeltelijk bewolkt 823 m
Zwaar bewolkt 8230 m
2019/08/18 16:00 EHVK 181600Z AUTO 23010KT 210V270 9999 SCT023 SCT027 OVC270 20/15 Q1007 WHT
 
EHFS - VLISSINGEN
Updated: 18/08/2019 17:55
Few Clouds
Few Clouds
 Wind van W
Wind: W 41 km/h
Temperatuur: 19°C
Dauwpunt: 14°C
Vochtigheid: 73%
Barometer: 1007 hPa
Clouds: Few Clouds
Visibility: 10 km
Cloud details: Few Clouds 1006 m
2019/08/18 15:55 EHFS 181555Z AUTO 27022KT 9999 FEW033/// 19/14 Q1007 W///H///
EHEH - EINDHOVEN/EINDHOVEN
Updated: 18/08/2019 18:14
Meestal bewolkt
Meestal bewolkt
 Wind van ZW
Wind: ZW 11 km/h
Temperatuur: 19°C
Dauwpunt: 15°C
Vochtigheid: 78%
Barometer: 1007 hPa
Clouds: Meestal bewolkt
Visibility: 10 km
Cloud details: Gedeeltelijk bewolkt 579 m
Meestal bewolkt 823 m
Meestal bewolkt 1006 m
2019/08/18 16:14 EHEH 181614Z AUTO 22006KT 200V300 9999 SCT019 BKN027 BKN033 19/15 Q1007 WHT 23010KT 9999 FEW011 SCT015 BKN050
 
EHGR - GILZE-RIJEN/GILZE-RIJEN
Updated: 18/08/2019 18:10
Meestal bewolkt
Meestal bewolkt
 Wind van ZW
Wind: ZW 11 km/h
Temperatuur: 21°C
Dauwpunt: 15°C
Vochtigheid: 69%
Barometer: 1007 hPa
Clouds: Meestal bewolkt
Visibility: 10 km
Cloud details: Gedeeltelijk bewolkt 732 m
Meestal bewolkt 884 m
Meestal bewolkt 1006 m
2019/08/18 16:10 EHGR 181610Z AUTO 23006KT 190V280 9999 SCT024 BKN029 BKN033 21/15 Q1007 WHT
EHDL - ARNHEM/DEELEN
Updated: 18/08/2019 17:55
Meestal bewolkt
Meestal bewolkt
 Wind van ZW
Wind: ZW 13 km/h
Temperatuur: 19°C
Dauwpunt: 15°C
Vochtigheid: 78%
Barometer: 1007 hPa
Clouds: Meestal bewolkt
Visibility: 10 km
Cloud details: Gedeeltelijk bewolkt 732 m
Meestal bewolkt 853 m
Meestal bewolkt 945 m
2019/08/18 15:55 EHDL 181555Z AUTO 23007KT 170V290 9999 SCT024 BKN028 BKN031 19/15 Q1007 WHT
 
EHBK - MAASTRICHT/MAASTRICHT-AACHEN
Updated: 18/08/2019 17:55
Gedeeltelijk bewolkt
Gedeeltelijk bewolkt
 Wind van WZW
Wind: WZW 19 km/h
Temperatuur: 19°C
Dauwpunt: 15°C
Vochtigheid: 78%
Barometer: 1009 hPa
Clouds: Gedeeltelijk bewolkt
Visibility: 10 km
Cloud details: Few Clouds 579 m
Gedeeltelijk bewolkt 701 m
2019/08/18 15:55 EHBK 181555Z AUTO 24010KT 200V270 9999 FEW019 SCT023 19/15 Q1009 NOSIG